新千歳空港の過去48時間の天気

新千歳空港 (Sapporo/New Chitose)

現在時刻: 9/19 08:15 JST (9/18 23:15 UTC) 以下の時間は現地時間です。

過去48時間のMETAR気象情報
時間 風向 風速(m/s) 視程 気温(℃) 湿度(%) 気圧(hPa) 天気現象
19 08:00 2 10km以上 17 88 1013
19 07:30 2 10km以上 15 94 1013
19 07:00 2 10km以上 15 94 1013
19 06:30 2 10km以上 14 100 1013
19 06:00 2 10km以上 13 100 1012
19 05:30 北北西 4 10km以上 13 100 1012
19 05:00 北北西 4 10km以上 14 94 1012
19 04:30 北西 3 10km以上 14 94 1012
RJCC 182300Z 36003KT 320V040 9999 FEW020 17/15 Q1013 RMK 1CU020 A2994
RJCC 182230Z 36004KT 9999 FEW020 SCT030 15/14 Q1013 RMK 1CU020 3CU030 A2993
RJCC 182200Z 35003KT 9999 FEW015 BKN030 15/14 Q1013 RMK 1ST015 6CU030 A2993
RJCC 182130Z 01003KT 9999 FEW015 BKN030 14/14 Q1013 RMK 1ST015 5CU030 A2992
RJCC 182100Z 36003KT 9999 FEW010 BKN025 13/13 Q1012 RMK 1ST010 5CU025 A2991
RJCC 182030Z 34007KT 9999 FEW010 13/13 Q1012 RMK 1ST010 A2990
RJCC 182000Z 33007KT 9999 FEW010 BKN020 14/13 Q1012 RMK 1ST010 6CU020 A2990
RJCC 181930Z 32005KT 9999 FEW010 BKN020 14/13 Q1012 RMK 1ST010 6CU020 A2989